Time;durP1;ratioP1;P1;durP2;ratioP2;P2;SDS_P1;SDS_P2;PMS_P1;PMS_P2;Temp;Humidity;BMP_temperature;BMP_pressure;BME280_temperature;BME280_humidity;BME280_pressure;Samples;Min_cycle;Max_cycle;Signal;HPM_P1;HPM_P2
2021/10/09 00:00:28;;;;;;;3.95;2.15;;;;;;;;;;5096154;28;20042;-75
2021/10/09 00:02:56;;;;;;;4.47;2.03;;;;;;;;;;5114025;28;20476;-77
2021/10/09 00:05:27;;;;;;;3.15;2.00;;;;;;;;;;5095521;28;20043;-75
2021/10/09 00:07:54;;;;;;;2.63;1.63;;;;;;;;;;5114073;28;20032;-75
2021/10/09 00:10:30;;;;;;;1.60;1.45;;;;;;;;;;5113381;28;20035;-77
2021/10/09 00:12:59;;;;;;;2.63;1.63;;;;;;;;;;5113808;28;20057;-77
2021/10/09 00:15:26;;;;;;;2.92;1.75;;;;;;;;;;5113572;28;20050;-75
2021/10/09 00:17:54;;;;;;;3.85;1.48;;;;;;;;;;5113822;28;20036;-75
2021/10/09 00:20:22;;;;;;;6.22;1.58;;;;;;;;;;5113784;28;20039;-77
2021/10/09 00:22:50;;;;;;;4.38;1.63;;;;;;;;;;5113474;28;20046;-77
2021/10/09 00:25:20;;;;;;;1.92;1.55;;;;;;;;;;5113056;28;20043;-75
2021/10/09 00:27:48;;;;;;;2.22;1.50;;;;;;;;;;5113681;28;20036;-75
2021/10/09 00:30:18;;;;;;;2.65;1.48;;;;;;;;;;5095323;28;20170;-77
2021/10/09 00:32:45;;;;;;;2.80;1.70;;;;;;;;;;5078355;28;20039;-75
2021/10/09 00:35:12;;;;;;;3.25;1.80;;;;;;;;;;5095180;28;20043;-75
2021/10/09 00:37:40;;;;;;;3.15;1.73;;;;;;;;;;5095438;28;20134;-77
2021/10/09 00:40:08;;;;;;;4.22;1.70;;;;;;;;;;5094593;28;20496;-77
2021/10/09 00:42:36;;;;;;;3.88;1.50;;;;;;;;;;5113500;28;20505;-75
2021/10/09 00:45:05;;;;;;;6.22;2.03;;;;;;;;;;5078368;28;20326;-75
2021/10/09 00:47:34;;;;;;;4.40;2.00;;;;;;;;;;5113693;28;20122;-75
2021/10/09 00:50:03;;;;;;;3.28;1.70;;;;;;;;;;5095474;28;20050;-75
2021/10/09 00:52:31;;;;;;;3.33;2.00;;;;;;;;;;5113290;28;20044;-75
2021/10/09 00:55:02;;;;;;;1.98;1.48;;;;;;;;;;5113085;28;20040;-74
2021/10/09 00:57:30;;;;;;;4.43;1.52;;;;;;;;;;5095526;28;20047;-75
2021/10/09 01:00:02;;;;;;;2.22;1.52;;;;;;;;;;5113251;28;20036;-75
2021/10/09 01:02:30;;;;;;;3.63;1.65;;;;;;;;;;5113492;28;20059;-76
2021/10/09 01:04:58;;;;;;;6.60;1.60;;;;;;;;;;5113191;28;20047;-75
2021/10/09 01:07:26;;;;;;;3.03;1.98;;;;;;;;;;5078823;28;20054;-76
2021/10/09 01:09:53;;;;;;;4.82;1.90;;;;;;;;;;5078175;28;20412;-77
2021/10/09 01:12:22;;;;;;;2.42;1.60;;;;;;;;;;5095134;28;20050;-77
2021/10/09 01:14:49;;;;;;;5.10;1.42;;;;;;;;;;5095242;28;20078;-75
2021/10/09 01:17:18;;;;;;;1.70;1.60;;;;;;;;;;5097280;28;20047;-77
2021/10/09 01:19:46;;;;;;;5.25;1.60;;;;;;;;;;5099154;28;20043;-76
2021/10/09 01:22:15;;;;;;;2.50;1.40;;;;;;;;;;5098674;28;20089;-74
2021/10/09 01:24:42;;;;;;;1.95;1.25;;;;;;;;;;5098655;28;20036;-74
2021/10/09 01:27:14;;;;;;;1.88;1.50;;;;;;;;;;5098757;28;20036;-75
2021/10/09 01:29:42;;;;;;;2.97;1.35;;;;;;;;;;5098987;28;20082;-75
2021/10/09 01:32:11;;;;;;;1.92;1.10;;;;;;;;;;5098983;28;20071;-75
2021/10/09 01:34:38;;;;;;;3.60;1.38;;;;;;;;;;5116978;28;20126;-76
2021/10/09 01:37:14;;;;;;;2.60;1.15;;;;;;;;;;5116846;28;20104;-75
2021/10/09 01:39:48;;;;;;;2.55;1.23;;;;;;;;;;5098352;28;20134;-77
2021/10/09 01:42:23;;;;;;;2.20;1.40;;;;;;;;;;5116895;28;20063;-74
2021/10/09 01:44:51;;;;;;;2.10;1.60;;;;;;;;;;5098554;28;20135;-74
2021/10/09 01:47:20;;;;;;;6.95;4.10;;;;;;;;;;5082054;28;20131;-77
2021/10/09 01:49:48;;;;;;;12.65;7.80;;;;;;;;;;5098682;28;20067;-77
2021/10/09 01:52:17;;;;;;;15.20;7.47;;;;;;;;;;5097892;28;20048;-77
2021/10/09 01:54:44;;;;;;;11.65;8.05;;;;;;;;;;5098940;28;20108;-77
2021/10/09 01:57:12;;;;;;;13.40;7.60;;;;;;;;;;5098258;28;20047;-77
2021/10/09 01:59:40;;;;;;;6.97;3.38;;;;;;;;;;5098188;28;20130;-75
2021/10/09 02:02:24;;;;;;;4.25;3.45;;;;;;;;;;5098087;28;20046;-76
2021/10/09 02:04:52;;;;;;;5.72;3.10;;;;;;;;;;5098309;28;20549;-75
2021/10/09 02:07:23;;;;;;;4.18;2.65;;;;;;;;;;5097872;28;20071;-77
2021/10/09 02:09:57;;;;;;;3.83;2.10;;;;;;;;;;5098270;28;20071;-77
2021/10/09 02:12:27;;;;;;;6.18;3.20;;;;;;;;;;5098268;28;20408;-76
2021/10/09 02:25:47;;;;;;;6.18;3.97;;;;;;;;;;5093462;28;20064;-74
2021/10/09 02:28:17;;;;;;;10.30;4.30;;;;;;;;;;5096676;28;20049;-74
2021/10/09 02:30:45;;;;;;;8.43;5.07;;;;;;;;;;5098009;28;20047;-74
2021/10/09 02:33:14;;;;;;;8.02;4.50;;;;;;;;;;5097954;28;20050;-77
2021/10/09 02:35:42;;;;;;;10.35;4.97;;;;;;;;;;5097761;28;20043;-77
2021/10/09 02:38:10;;;;;;;12.32;5.78;;;;;;;;;;5097404;28;20047;-75
2021/10/09 02:40:38;;;;;;;13.68;5.80;;;;;;;;;;5115557;28;20377;-76
2021/10/09 02:43:09;;;;;;;11.30;5.60;;;;;;;;;;5115807;28;20545;-77
2021/10/09 02:45:37;;;;;;;12.38;5.13;;;;;;;;;;5097414;28;20047;-74
2021/10/09 02:48:06;;;;;;;13.50;6.10;;;;;;;;;;5080699;28;20043;-74
2021/10/09 02:50:39;;;;;;;10.82;4.30;;;;;;;;;;5096913;28;20040;-77
2021/10/09 02:53:08;;;;;;;9.15;3.85;;;;;;;;;;5097200;28;20108;-74
2021/10/09 02:55:36;;;;;;;9.90;3.63;;;;;;;;;;5115491;28;20063;-77
2021/10/09 02:58:07;;;;;;;4.75;3.05;;;;;;;;;;5097129;28;20066;-76
2021/10/09 03:00:35;;;;;;;5.72;2.90;;;;;;;;;;5096991;28;20063;-75
2021/10/09 03:03:04;;;;;;;4.90;2.55;;;;;;;;;;5096913;28;20584;-75
2021/10/09 03:05:32;;;;;;;4.53;2.50;;;;;;;;;;5114828;28;20090;-76
2021/10/09 03:08:00;;;;;;;3.60;2.42;;;;;;;;;;5097480;28;20384;-75
2021/10/09 03:10:29;;;;;;;3.60;1.90;;;;;;;;;;5097151;28;20043;-77
2021/10/09 03:12:58;;;;;;;3.70;1.83;;;;;;;;;;5096983;28;20036;-76
2021/10/09 03:15:27;;;;;;;2.65;1.67;;;;;;;;;;5096782;28;20050;-75
2021/10/09 03:17:57;;;;;;;2.65;1.50;;;;;;;;;;5080573;28;20047;-74
2021/10/09 03:20:29;;;;;;;2.97;1.48;;;;;;;;;;5096056;28;20334;-76
2021/10/09 03:22:56;;;;;;;3.67;1.75;;;;;;;;;;5096449;28;20477;-77
2021/10/09 03:25:24;;;;;;;3.92;1.48;;;;;;;;;;5096746;28;20043;-75
2021/10/09 03:27:52;;;;;;;3.85;1.73;;;;;;;;;;5096788;28;20390;-77
2021/10/09 03:30:21;;;;;;;1.88;1.38;;;;;;;;;;5096843;28;20040;-77
2021/10/09 03:32:49;;;;;;;6.38;2.20;;;;;;;;;;5114679;28;20063;-77
2021/10/09 03:35:17;;;;;;;3.17;1.58;;;;;;;;;;5096640;28;20039;-76
2021/10/09 03:37:49;;;;;;;2.30;1.45;;;;;;;;;;5096602;28;20462;-74
2021/10/09 03:40:20;;;;;;;1.83;1.42;;;;;;;;;;5095192;28;20046;-77
2021/10/09 03:42:53;;;;;;;3.25;1.48;;;;;;;;;;5114648;28;20031;-77
2021/10/09 03:52:47;;;;;;;2.40;1.70;;;;;;;;;;5114331;28;20388;-74
2021/10/09 03:55:16;;;;;;;3.78;1.60;;;;;;;;;;5096678;28;20040;-75
2021/10/09 03:57:48;;;;;;;2.45;1.73;;;;;;;;;;5096206;28;20058;-77
2021/10/09 04:00:20;;;;;;;2.83;1.90;;;;;;;;;;5095672;28;20050;-76
2021/10/09 04:02:56;;;;;;;2.17;1.92;;;;;;;;;;5095418;28;20043;-74
2021/10/09 04:05:24;;;;;;;3.67;2.30;;;;;;;;;;5095842;28;20055;-75
2021/10/09 04:07:53;;;;;;;3.53;2.50;;;;;;;;;;5095856;28;20097;-77
2021/10/09 04:10:21;;;;;;;2.45;2.00;;;;;;;;;;5079510;28;20092;-77
2021/10/09 04:12:52;;;;;;;4.40;2.20;;;;;;;;;;5095986;28;20100;-74
2021/10/09 04:15:20;;;;;;;2.83;2.20;;;;;;;;;;5095984;28;20061;-77
2021/10/09 04:17:48;;;;;;;4.43;2.30;;;;;;;;;;5113238;28;20122;-77
2021/10/09 04:20:16;;;;;;;2.63;2.03;;;;;;;;;;5096206;28;20092;-76
2021/10/09 04:22:46;;;;;;;6.88;2.08;;;;;;;;;;5095531;28;20043;-74
2021/10/09 04:25:14;;;;;;;2.25;1.85;;;;;;;;;;5095728;28;20520;-76
2021/10/09 04:27:42;;;;;;;4.13;2.00;;;;;;;;;;5095472;28;20497;-74
2021/10/09 04:30:10;;;;;;;2.90;1.90;;;;;;;;;;5113906;28;20116;-77
2021/10/09 04:32:40;;;;;;;4.40;2.08;;;;;;;;;;5095416;28;20473;-75
2021/10/09 04:35:09;;;;;;;3.97;2.35;;;;;;;;;;5095796;28;20047;-77
2021/10/09 04:37:37;;;;;;;1.98;1.73;;;;;;;;;;5095395;28;20040;-75
2021/10/09 04:40:08;;;;;;;7.05;2.20;;;;;;;;;;5095281;28;20135;-77
2021/10/09 04:42:39;;;;;;;3.30;2.00;;;;;;;;;;5079306;28;20159;-75
2021/10/09 04:45:10;;;;;;;4.97;3.17;;;;;;;;;;5095161;28;20063;-77
2021/10/09 04:47:43;;;;;;;10.57;6.10;;;;;;;;;;5095250;28;20109;-77
2021/10/09 04:50:13;;;;;;;14.98;8.60;;;;;;;;;;5095051;28;20040;-75
2021/10/09 04:52:41;;;;;;;16.67;9.07;;;;;;;;;;5095166;28;20036;-75
2021/10/09 04:55:10;;;;;;;11.90;6.40;;;;;;;;;;5095232;28;20573;-76
2021/10/09 04:57:38;;;;;;;6.32;4.10;;;;;;;;;;5078243;28;20043;-75
2021/10/09 05:00:08;;;;;;;6.30;2.90;;;;;;;;;;5095179;28;20092;-75
2021/10/09 05:02:38;;;;;;;4.65;2.60;;;;;;;;;;5094675;28;20044;-75
2021/10/09 05:05:07;;;;;;;4.50;2.65;;;;;;;;;;5095342;28;20036;-75
2021/10/09 05:07:36;;;;;;;5.75;2.30;;;;;;;;;;5095273;28;20066;-77
2021/10/09 05:10:07;;;;;;;6.15;2.42;;;;;;;;;;5095558;28;20044;-75
2021/10/09 05:12:52;;;;;;;5.97;2.03;;;;;;;;;;5082187;28;20070;-75
2021/10/09 05:15:20;;;;;;;6.80;2.40;;;;;;;;;;5075443;28;20089;-77
2021/10/09 05:17:48;;;;;;;4.47;2.40;;;;;;;;;;5092957;28;20089;-74
2021/10/09 05:20:18;;;;;;;4.00;2.00;;;;;;;;;;5074669;28;20064;-77
2021/10/09 05:22:46;;;;;;;5.13;1.98;;;;;;;;;;5074847;28;20492;-74
2021/10/09 05:25:14;;;;;;;3.80;1.70;;;;;;;;;;5074105;28;20040;-75
2021/10/09 05:27:52;;;;;;;2.22;1.52;;;;;;;;;;5074369;28;20392;-78
2021/10/09 05:30:21;;;;;;;4.60;1.27;;;;;;;;;;5057846;28;20040;-78
2021/10/09 05:33:00;;;;;;;6.72;2.88;;;;;;;;;;5074533;28;20110;-75
2021/10/09 05:35:27;;;;;;;2.75;1.60;;;;;;;;;;5074754;28;20457;-79
2021/10/09 05:37:55;;;;;;;2.58;1.55;;;;;;;;;;5074566;28;20117;-78
2021/10/09 05:40:23;;;;;;;3.38;1.23;;;;;;;;;;5074343;28;20122;-78
2021/10/09 05:42:57;;;;;;;3.75;1.35;;;;;;;;;;5074093;28;20040;-78
2021/10/09 05:45:26;;;;;;;4.03;1.33;;;;;;;;;;5074307;28;20397;-76
2021/10/09 05:47:53;;;;;;;3.60;1.38;;;;;;;;;;5074520;28;20132;-79
2021/10/09 05:50:26;;;;;;;4.55;1.60;;;;;;;;;;5092232;28;20040;-73
2021/10/09 05:55:34;;;;;;;5.10;1.70;;;;;;;;;;5074410;28;20084;-75
2021/10/09 05:58:15;;;;;;;1.42;1.15;;;;;;;;;;5073954;28;20040;-73
2021/10/09 06:31:26;;;;;;;5.93;2.38;;;;;;;;;;5077551;28;20043;-77
2021/10/09 07:01:23;;;;;;;3.45;1.55;;;;;;;;;;5076926;28;20040;-78
2021/10/09 07:03:50;;;;;;;5.82;1.73;;;;;;;;;;5076929;28;20051;-78
2021/10/09 07:06:19;;;;;;;2.70;1.58;;;;;;;;;;5094817;28;20036;-74
2021/10/09 07:08:56;;;;;;;2.22;1.42;;;;;;;;;;5077040;28;20085;-78
2021/10/09 07:11:37;;;;;;;5.93;1.83;;;;;;;;;;5076557;28;20131;-78
2021/10/09 07:14:06;;;;;;;4.32;1.70;;;;;;;;;;5060493;28;20067;-75
2021/10/09 07:16:36;;;;;;;3.13;1.73;;;;;;;;;;5076530;28;20565;-74
2021/10/09 07:19:05;;;;;;;2.38;1.80;;;;;;;;;;5076211;28;20052;-76
2021/10/09 07:21:37;;;;;;;2.27;1.50;;;;;;;;;;5076516;28;20047;-78
2021/10/09 07:24:24;;;;;;;6.93;2.63;;;;;;;;;;5076326;28;20041;-79
2021/10/09 07:26:56;;;;;;;9.38;4.45;;;;;;;;;;5076786;28;20036;-80
2021/10/09 07:29:23;;;;;;;4.55;2.83;;;;;;;;;;5094737;28;20111;-78
2021/10/09 07:31:52;;;;;;;5.55;3.35;;;;;;;;;;5076475;28;20068;-75
2021/10/09 07:34:19;;;;;;;7.45;3.03;;;;;;;;;;5076811;28;20052;-74
2021/10/09 07:36:47;;;;;;;9.88;3.28;;;;;;;;;;5094338;28;20068;-74
2021/10/09 07:39:15;;;;;;;5.10;2.72;;;;;;;;;;5074889;28;20043;-74
2021/10/09 07:41:43;;;;;;;3.80;2.85;;;;;;;;;;5074781;28;20074;-74
2021/10/09 07:44:10;;;;;;;3.47;1.65;;;;;;;;;;5092403;28;20048;-74
2021/10/09 07:46:38;;;;;;;3.28;1.85;;;;;;;;;;5093922;28;20039;-79
2021/10/09 07:49:05;;;;;;;6.13;2.53;;;;;;;;;;5093677;28;20036;-75
2021/10/09 07:51:33;;;;;;;5.30;2.60;;;;;;;;;;5093907;28;20446;-74
2021/10/09 07:54:03;;;;;;;4.07;2.30;;;;;;;;;;5093532;28;20046;-77
2021/10/09 07:56:32;;;;;;;4.40;2.40;;;;;;;;;;5093317;28;20046;-79
2021/10/09 07:58:59;;;;;;;4.13;2.50;;;;;;;;;;5093651;28;20067;-79
2021/10/09 08:01:27;;;;;;;5.95;2.90;;;;;;;;;;5075519;28;20374;-79
2021/10/09 08:03:55;;;;;;;6.57;2.65;;;;;;;;;;5093166;28;20035;-79
2021/10/09 08:06:23;;;;;;;7.13;3.28;;;;;;;;;;5093416;28;20441;-79
2021/10/09 08:08:51;;;;;;;6.95;2.95;;;;;;;;;;5093321;28;20137;-75
2021/10/09 08:11:20;;;;;;;6.65;3.10;;;;;;;;;;5075315;28;20054;-75
2021/10/09 08:13:47;;;;;;;5.90;3.15;;;;;;;;;;5093149;28;20043;-78
2021/10/09 08:16:15;;;;;;;7.18;2.88;;;;;;;;;;5075428;28;20048;-75
2021/10/09 08:18:42;;;;;;;4.65;2.78;;;;;;;;;;5075415;28;20361;-80
2021/10/09 08:21:10;;;;;;;3.97;2.38;;;;;;;;;;5093273;28;20078;-75
2021/10/09 08:23:45;;;;;;;6.10;2.50;;;;;;;;;;5093074;28;20032;-75
2021/10/09 08:39:42;;;;;;;3.47;1.20;;;;;;;;;;5096667;28;20512;-75
2021/10/09 08:42:10;;;;;;;3.00;1.30;;;;;;;;;;5095324;28;20046;-76
2021/10/09 08:44:39;;;;;;;2.33;1.20;;;;;;;;;;5095033;28;20044;-75
2021/10/09 08:47:11;;;;;;;1.98;1.30;;;;;;;;;;5113722;28;20043;-77
2021/10/09 08:49:42;;;;;;;3.50;1.23;;;;;;;;;;5113543;28;20042;-77
2021/10/09 08:52:09;;;;;;;2.40;1.10;;;;;;;;;;5113736;28;20047;-76
2021/10/09 08:54:38;;;;;;;2.72;1.30;;;;;;;;;;5095587;28;20569;-80
2021/10/09 08:57:11;;;;;;;2.05;1.17;;;;;;;;;;5112951;28;20078;-74
2021/10/09 08:59:54;;;;;;;2.20;1.58;;;;;;;;;;5113170;28;20540;-75
2021/10/09 09:02:33;;;;;;;4.10;1.25;;;;;;;;;;5113264;28;20114;-74
2021/10/09 09:41:13;;;;;;;3.33;1.45;;;;;;;;;;5095300;28;20058;-79
2021/10/09 09:43:44;;;;;;;8.23;1.77;;;;;;;;;;5096423;28;20454;-75
2021/10/09 09:46:14;;;;;;;2.90;1.20;;;;;;;;;;5096538;28;20075;-78
2021/10/09 09:48:42;;;;;;;2.80;1.35;;;;;;;;;;5095792;28;20278;-75
2021/10/09 09:51:13;;;;;;;2.38;1.50;;;;;;;;;;5094744;28;20070;-75
2021/10/09 09:53:41;;;;;;;2.03;1.30;;;;;;;;;;5077442;28;20040;-80
2021/10/09 09:56:13;;;;;;;2.70;1.20;;;;;;;;;;5077907;28;20497;-76
2021/10/09 09:58:41;;;;;;;1.58;1.17;;;;;;;;;;5095925;28;20040;-75
2021/10/09 10:01:10;;;;;;;1.77;0.95;;;;;;;;;;5096138;28;20046;-75
2021/10/09 10:03:44;;;;;;;1.10;0.95;;;;;;;;;;5061320;28;20432;-74
2021/10/09 10:06:11;;;;;;;1.88;1.10;;;;;;;;;;5095293;28;20384;-74
2021/10/09 10:08:41;;;;;;;4.95;1.25;;;;;;;;;;5096173;28;20032;-75
2021/10/09 10:11:10;;;;;;;2.38;1.38;;;;;;;;;;5095924;28;20635;-75
2021/10/09 10:13:42;;;;;;;2.65;1.15;;;;;;;;;;5095980;28;20186;-74
2021/10/09 10:16:10;;;;;;;1.45;0.93;;;;;;;;;;5095640;28;20075;-74
2021/10/09 10:18:45;;;;;;;1.40;0.77;;;;;;;;;;5077844;28;20040;-75
2021/10/09 10:21:33;;;;;;;7.57;1.70;;;;;;;;;;5094854;28;20055;-74
2021/10/09 10:24:01;;;;;;;3.08;0.82;;;;;;;;;;5079428;28;20569;-78
2021/10/09 10:26:32;;;;;;;1.65;0.95;;;;;;;;;;5095138;28;20489;-75
2021/10/09 10:29:03;;;;;;;3.25;1.27;;;;;;;;;;5095531;28;20040;-75
2021/10/09 10:31:40;;;;;;;1.40;0.80;;;;;;;;;;5095983;28;20051;-75
2021/10/09 10:34:24;;;;;;;1.45;0.80;;;;;;;;;;5095192;28;20472;-78
2021/10/09 10:36:52;;;;;;;1.60;1.00;;;;;;;;;;5095184;28;20067;-74
2021/10/09 10:39:24;;;;;;;1.75;1.10;;;;;;;;;;5077168;28;20066;-74
2021/10/09 10:42:00;;;;;;;1.65;0.80;;;;;;;;;;5095102;28;20071;-74
2021/10/09 10:44:52;;;;;;;2.63;1.30;;;;;;;;;;5077262;28;20135;-74
2021/10/09 10:47:40;;;;;;;2.58;1.02;;;;;;;;;;5095618;28;20114;-78
2021/10/09 10:50:29;;;;;;;0.90;0.90;;;;;;;;;;5076026;28;20048;-74
2021/10/09 10:53:05;;;;;;;2.80;1.27;;;;;;;;;;5095704;28;20047;-74
2021/10/09 10:56:02;;;;;;;3.78;1.63;;;;;;;;;;5076999;28;20054;-74
2021/10/09 10:58:30;;;;;;;1.02;0.93;;;;;;;;;;5064162;28;20062;-74
2021/10/09 11:01:17;;;;;;;1.95;1.42;;;;;;;;;;5076878;28;20520;-74
2021/10/09 11:03:54;;;;;;;1.17;0.75;;;;;;;;;;5094028;28;20040;-75
2021/10/09 11:06:23;;;;;;;1.98;0.95;;;;;;;;;;5094898;28;20047;-73
2021/10/09 11:08:51;;;;;;;2.92;1.50;;;;;;;;;;5077284;28;20040;-73
2021/10/09 11:11:32;;;;;;;3.05;1.60;;;;;;;;;;5095013;28;20101;-72
2021/10/09 11:14:00;;;;;;;3.38;0.90;;;;;;;;;;5094592;28;20050;-78
2021/10/09 11:16:31;;;;;;;1.60;0.80;;;;;;;;;;5097192;28;20031;-73
2021/10/09 11:18:59;;;;;;;4.05;1.30;;;;;;;;;;5115092;28;20138;-73
2021/10/09 11:21:26;;;;;;;1.95;1.05;;;;;;;;;;5115048;28;20045;-74
2021/10/09 11:23:56;;;;;;;2.00;0.95;;;;;;;;;;5115142;28;20031;-73
2021/10/09 11:26:28;;;;;;;1.70;0.90;;;;;;;;;;5114799;28;20401;-72
2021/10/09 11:29:01;;;;;;;3.40;1.23;;;;;;;;;;5114869;28;20036;-76
2021/10/09 11:31:29;;;;;;;;;;;;;;;;;;5115379;28;20070;-72
2021/10/09 11:34:01;;;;;;;1.15;1.02;;;;;;;;;;5114098;28;20018;-74
2021/10/09 11:36:28;;;;;;;;;;;;;;;;;;5100080;28;20047;-73
2021/10/09 11:39:26;;;;;;;1.00;0.70;;;;;;;;;;5093924;28;19927;-75
2021/10/09 11:42:12;;;;;;;1.38;0.70;;;;;;;;;;5093577;28;20139;-73
2021/10/09 11:44:51;;;;;;;1.38;0.63;;;;;;;;;;5099241;23;20060;-74
2021/10/09 11:55:38;;;;;;;1.80;0.75;;;;;;;;;;5114209;28;20075;-78
2021/10/09 11:58:05;;;;;;;1.58;0.82;;;;;;;;;;5114341;28;20039;-77
2021/10/09 12:00:51;;;;;;;1.40;0.90;;;;;;;;;;5113521;28;20138;-78
2021/10/09 12:03:25;;;;;;;1.73;0.98;;;;;;;;;;5113812;28;20131;-73
2021/10/09 12:05:54;;;;;;;2.47;0.77;;;;;;;;;;5114355;28;20115;-74
2021/10/09 12:08:28;;;;;;;2.67;0.80;;;;;;;;;;5114577;28;20036;-75
2021/10/09 12:11:15;;;;;;;2.53;0.80;;;;;;;;;;5114084;28;20067;-77
2021/10/09 12:14:02;;;;;;;1.50;0.73;;;;;;;;;;5113999;28;20040;-73
2021/10/09 12:16:40;;;;;;;1.95;0.98;;;;;;;;;;5113349;28;20040;-78
2021/10/09 12:19:09;;;;;;;2.67;0.50;;;;;;;;;;5095690;28;20048;-77
2021/10/09 12:21:48;;;;;;;0.73;0.55;;;;;;;;;;5095435;28;20515;-78
2021/10/09 12:24:19;;;;;;;3.10;0.80;;;;;;;;;;5095947;28;20046;-78
2021/10/09 12:27:02;;;;;;;1.88;1.10;;;;;;;;;;5096022;28;20111;-75
2021/10/09 12:29:29;;;;;;;;;;;;;;;;;;5114555;28;20035;-74
2021/10/09 12:32:12;;;;;;;1.27;0.60;;;;;;;;;;5113834;28;19920;-75
2021/10/09 12:34:39;;;;;;;2.58;0.50;;;;;;;;;;5113562;28;20504;-74
2021/10/09 12:37:25;;;;;;;1.63;0.60;;;;;;;;;;5113570;28;20039;-73
2021/10/09 12:40:11;;;;;;;1.65;0.60;;;;;;;;;;5113747;28;20043;-73
2021/10/09 12:42:44;;;;;;;1.77;0.70;;;;;;;;;;5113567;28;20039;-77
2021/10/09 12:45:12;;;;;;;1.08;1.00;;;;;;;;;;5112783;28;20126;-75
2021/10/09 12:47:57;;;;;;;0.88;0.55;;;;;;;;;;5113296;28;20467;-78
2021/10/09 12:50:26;;;;;;;1.05;0.60;;;;;;;;;;5071250;28;20042;-79
2021/10/09 12:52:55;;;;;;;0.88;0.70;;;;;;;;;;5111430;28;20058;-81
2021/10/09 12:55:27;;;;;;;0.70;0.70;;;;;;;;;;5111908;28;20474;-74
2021/10/09 12:57:57;;;;;;;1.02;0.60;;;;;;;;;;5109030;28;20532;-75
2021/10/09 13:00:33;;;;;;;2.25;0.70;;;;;;;;;;5092624;28;20052;-76
2021/10/09 13:03:02;;;;;;;1.42;0.80;;;;;;;;;;5110920;28;20484;-73
2021/10/09 13:05:31;;;;;;;1.63;0.60;;;;;;;;;;5111026;28;20055;-78
2021/10/09 13:08:00;;;;;;;0.73;0.70;;;;;;;;;;5093236;28;20040;-72
2021/10/09 13:10:33;;;;;;;2.20;0.90;;;;;;;;;;5111392;28;20407;-74
2021/10/09 13:13:00;;;;;;;1.45;0.60;;;;;;;;;;5112611;28;20051;-75
2021/10/09 13:15:28;;;;;;;1.27;0.70;;;;;;;;;;5115376;28;20058;-76
2021/10/09 13:17:58;;;;;;;0.63;0.63;;;;;;;;;;5115314;28;20052;-74
2021/10/09 13:20:32;;;;;;;1.40;0.40;;;;;;;;;;5096901;28;20461;-72
2021/10/09 13:23:00;;;;;;;1.50;0.70;;;;;;;;;;5097017;28;20067;-79
2021/10/09 13:25:31;;;;;;;2.17;0.40;;;;;;;;;;5115439;28;20046;-74
2021/10/09 13:27:59;;;;;;;1.35;0.60;;;;;;;;;;5115083;28;20297;-79
2021/10/09 13:30:30;;;;;;;4.13;0.80;;;;;;;;;;5096910;28;20047;-76
2021/10/09 13:32:58;;;;;;;2.67;0.85;;;;;;;;;;5106407;28;20044;-74
2021/10/09 13:35:26;;;;;;;0.90;0.60;;;;;;;;;;5078625;28;20153;-72
2021/10/09 13:37:57;;;;;;;1.05;0.57;;;;;;;;;;5079006;28;20047;-72
2021/10/09 13:40:25;;;;;;;0.80;0.50;;;;;;;;;;5096243;28;20055;-74
2021/10/09 13:42:53;;;;;;;1.50;0.70;;;;;;;;;;5096374;28;20036;-75
2021/10/09 13:45:21;;;;;;;1.05;0.70;;;;;;;;;;5077805;28;20063;-73
2021/10/09 13:47:49;;;;;;;1.55;0.57;;;;;;;;;;5077806;28;20036;-72
2021/10/09 13:50:18;;;;;;;1.52;0.60;;;;;;;;;;5095767;28;20028;-77
2021/10/09 13:52:47;;;;;;;0.50;0.40;;;;;;;;;;5078135;28;20115;-72
2021/10/09 13:55:14;;;;;;;1.50;0.65;;;;;;;;;;5096474;28;20036;-74
2021/10/09 13:57:43;;;;;;;1.58;0.60;;;;;;;;;;5096120;28;20048;-75
2021/10/09 14:00:10;;;;;;;3.00;0.63;;;;;;;;;;5096438;28;20047;-79
2021/10/09 14:02:37;;;;;;;1.25;0.47;;;;;;;;;;5086438;28;20395;-73
2021/10/09 14:05:05;;;;;;;1.23;0.47;;;;;;;;;;5109796;28;20059;-72
2021/10/09 14:07:33;;;;;;;0.75;0.60;;;;;;;;;;5097324;28;20048;-74
2021/10/09 14:10:00;;;;;;;1.05;0.50;;;;;;;;;;5116305;28;20082;-83
2021/10/09 14:12:28;;;;;;;2.72;0.73;;;;;;;;;;5115755;28;20040;-78
2021/10/09 14:14:59;;;;;;;0.52;0.50;;;;;;;;;;5115884;28;20063;-77
2021/10/09 14:17:31;;;;;;;1.10;0.52;;;;;;;;;;5114606;28;20063;-77
2021/10/09 14:20:01;;;;;;;1.07;0.40;;;;;;;;;;5115562;28;20048;-76
2021/10/09 14:22:29;;;;;;;0.88;0.60;;;;;;;;;;5116241;28;20338;-74
2021/10/09 14:24:57;;;;;;;0.77;0.55;;;;;;;;;;5115009;28;20045;-72
2021/10/09 14:27:28;;;;;;;0.80;0.63;;;;;;;;;;5097922;28;20119;-76
2021/10/09 14:30:00;;;;;;;1.92;0.47;;;;;;;;;;5116175;28;20047;-72
2021/10/09 14:32:28;;;;;;;0.30;0.30;;;;;;;;;;5116107;28;20044;-76
2021/10/09 14:34:57;;;;;;;1.23;0.63;;;;;;;;;;5115866;28;20088;-75
2021/10/09 14:37:25;;;;;;;0.57;0.57;;;;;;;;;;5115690;28;20039;-72
2021/10/09 14:39:53;;;;;;;4.63;0.80;;;;;;;;;;5115820;28;20035;-81
2021/10/09 14:42:21;;;;;;;0.98;0.70;;;;;;;;;;5116048;28;20081;-82
2021/10/09 14:44:50;;;;;;;1.02;0.55;;;;;;;;;;5097366;28;20065;-72
2021/10/09 15:20:29;;;;;;;1.08;0.63;;;;;;;;;;5114906;28;20071;-84
2021/10/09 15:22:57;;;;;;;1.20;0.90;;;;;;;;;;5115106;28;20048;-83
2021/10/09 15:25:26;;;;;;;3.30;1.02;;;;;;;;;;5114760;28;20036;-73
2021/10/09 15:27:56;;;;;;;2.42;0.95;;;;;;;;;;5114689;28;20438;-73
2021/10/09 15:30:27;;;;;;;1.20;0.88;;;;;;;;;;5114617;28;20059;-72
2021/10/09 15:32:54;;;;;;;1.73;1.00;;;;;;;;;;5113543;28;20035;-84
2021/10/09 15:35:23;;;;;;;2.17;1.02;;;;;;;;;;5112768;28;20050;-77
2021/10/09 15:37:51;;;;;;;1.23;0.85;;;;;;;;;;5113639;28;20044;-74
2021/10/09 15:40:20;;;;;;;2.15;1.00;;;;;;;;;;5114078;28;20120;-71
2021/10/09 15:42:49;;;;;;;1.63;0.93;;;;;;;;;;5114866;28;20114;-83
2021/10/09 15:45:19;;;;;;;2.30;0.88;;;;;;;;;;5087670;28;20048;-81
2021/10/09 15:47:47;;;;;;;2.08;0.90;;;;;;;;;;5093937;28;20039;-76
2021/10/09 15:50:15;;;;;;;2.80;1.15;;;;;;;;;;5075549;28;20047;-83
2021/10/09 15:52:42;;;;;;;1.25;0.80;;;;;;;;;;5094331;28;20055;-83
2021/10/09 15:55:10;;;;;;;3.13;0.93;;;;;;;;;;5094291;28;20114;-82
2021/10/09 15:57:39;;;;;;;3.35;1.35;;;;;;;;;;5075803;28;20043;-75
2021/10/09 16:00:08;;;;;;;2.65;0.90;;;;;;;;;;5094034;28;20059;-75
2021/10/09 16:02:36;;;;;;;1.20;1.02;;;;;;;;;;5094063;28;20082;-73
2021/10/09 16:05:05;;;;;;;2.20;1.05;;;;;;;;;;5093846;28;20109;-73
2021/10/09 16:07:37;;;;;;;3.42;1.00;;;;;;;;;;5093624;28;20040;-77
2021/10/09 16:10:08;;;;;;;0.85;0.85;;;;;;;;;;5093997;28;20363;-77
2021/10/09 16:12:35;;;;;;;1.38;0.95;;;;;;;;;;5093694;28;20479;-73
2021/10/09 16:15:03;;;;;;;1.38;1.20;;;;;;;;;;5093518;28;20040;-74
2021/10/09 16:17:34;;;;;;;1.17;1.08;;;;;;;;;;5093662;28;20044;-73
2021/10/09 16:20:04;;;;;;;1.67;0.80;;;;;;;;;;5093416;28;20071;-82
2021/10/09 16:22:33;;;;;;;2.78;2.10;;;;;;;;;;5093196;28;20043;-75
2021/10/09 16:25:03;;;;;;;5.35;1.50;;;;;;;;;;5094784;28;20040;-74
2021/10/09 16:27:31;;;;;;;2.67;1.20;;;;;;;;;;5102124;28;20032;-74
2021/10/09 16:29:59;;;;;;;3.03;1.50;;;;;;;;;;5090486;28;20042;-74
2021/10/09 16:32:26;;;;;;;1.38;1.27;;;;;;;;;;5089368;28;20505;-74
2021/10/09 16:34:54;;;;;;;1.30;1.20;;;;;;;;;;5099250;28;20046;-73
2021/10/09 16:37:21;;;;;;;1.10;1.00;;;;;;;;;;5101119;28;20575;-73
2021/10/09 16:39:48;;;;;;;3.97;1.30;;;;;;;;;;5110968;28;20036;-74
2021/10/09 16:42:17;;;;;;;1.63;1.40;;;;;;;;;;5093424;28;20047;-74
2021/10/09 16:44:44;;;;;;;2.20;1.20;;;;;;;;;;5093314;28;20040;-74
2021/10/09 16:47:11;;;;;;;2.20;1.52;;;;;;;;;;5092739;28;20040;-74
2021/10/09 16:49:39;;;;;;;2.38;1.80;;;;;;;;;;5092984;28;20050;-73
2021/10/09 16:52:07;;;;;;;3.38;2.00;;;;;;;;;;5080583;28;20409;-73
2021/10/09 16:54:37;;;;;;;5.28;1.73;;;;;;;;;;5112016;28;20050;-74
2021/10/09 16:57:04;;;;;;;2.03;1.60;;;;;;;;;;5103932;28;20071;-74
2021/10/09 16:59:38;;;;;;;1.80;1.70;;;;;;;;;;5092411;28;20043;-74
2021/10/09 17:02:06;;;;;;;2.05;1.90;;;;;;;;;;5074333;28;20042;-74
2021/10/09 17:04:34;;;;;;;2.85;1.90;;;;;;;;;;5092762;28;20044;-73
2021/10/09 17:07:01;;;;;;;2.90;2.22;;;;;;;;;;5092563;28;20071;-73
2021/10/09 17:09:29;;;;;;;4.47;2.58;;;;;;;;;;5092934;28;20040;-74
2021/10/09 17:11:57;;;;;;;3.60;2.50;;;;;;;;;;5093172;28;20548;-73
2021/10/09 17:14:25;;;;;;;3.42;1.98;;;;;;;;;;5092728;28;20580;-74
2021/10/09 17:16:52;;;;;;;4.78;2.30;;;;;;;;;;5093184;28;20044;-74
2021/10/09 17:19:20;;;;;;;2.95;2.33;;;;;;;;;;5092928;28;20366;-75
2021/10/09 17:21:47;;;;;;;4.82;3.22;;;;;;;;;;5092632;28;20043;-75
2021/10/09 17:24:15;;;;;;;3.60;2.75;;;;;;;;;;5074785;28;20113;-74
2021/10/09 17:26:43;;;;;;;4.28;2.50;;;;;;;;;;5092814;28;20119;-73
2021/10/09 17:29:12;;;;;;;6.00;2.60;;;;;;;;;;5092980;28;20127;-73
2021/10/09 17:31:39;;;;;;;3.55;2.50;;;;;;;;;;5092622;28;20089;-72
2021/10/09 17:34:07;;;;;;;3.47;2.60;;;;;;;;;;5092294;28;20036;-74
2021/10/09 17:36:34;;;;;;;5.40;2.83;;;;;;;;;;5092466;28;20047;-74
2021/10/09 17:39:01;;;;;;;5.80;2.88;;;;;;;;;;5092583;28;20386;-73
2021/10/09 17:41:30;;;;;;;4.50;2.92;;;;;;;;;;5092659;28;20158;-74
2021/10/09 17:43:57;;;;;;;5.50;2.90;;;;;;;;;;5092625;28;20044;-73
2021/10/09 17:46:24;;;;;;;4.43;3.15;;;;;;;;;;5093030;28;20488;-74
2021/10/09 17:48:52;;;;;;;5.10;3.15;;;;;;;;;;5092707;28;20036;-74
2021/10/09 17:51:31;;;;;;;6.65;4.53;;;;;;;;;;5092298;28;20047;-73